Ryoho Maru No.2 — JD2964 — position and weather

sailwx.info

Track history (hours):
 
Tides and Currents Weather Stations Pressure Air Temp Water Temp Dewpoint Dewpoint Depression Visibility Wind Speed Wind Dir Waves Ship Positions

Ryoho Maru No.2

Last reported at 2015-Jul-27 21:21 UTC. Time now 2015-Aug-03 02:38 UTC.
Position N 35°35' E 140°50'.

Length 57 m; draft 4 m.

Type: Tanker. MMSI: 431001062.

Date/timePositionNaut miles runAvg speedWind from/ knotsBaromVisibWave heightAir tempDewpointWater temp
2015-Jul-27 21:21N 35°35' E 140°50'8 9.5
2015-Jul-27 20:33N 35°29' E 140°43'12 9.8
2015-Jul-27 19:22N 35°20' E 140°35'8 9.3
2015-Jul-27 18:33N 35°14' E 140°29'19 9.6
2015-Jul-27 16:33N 35°01' E 140°12'14 9.7
2015-Jul-27 15:07N 34°53' E 139°58'12 8.0
2015-Jul-27 13:33N 34°59' E 139°45'9 8.9
2015-Jul-27 12:33N 35°08' E 139°47'9 8.7
2015-Jul-27 11:33N 35°17' E 139°45'8 8.5
2015-Jul-27 10:34N 35°25' E 139°44'9 8.9
2015-Jul-27 09:33N 35°30' E 139°53'6 6.4
2015-Jul-27 08:34N 35°28' E 140°01'0 0.0
2015-Jul-27 07:34N 35°28' E 140°01'0 0.0
2015-Jul-27 06:31N 35°28' E 140°01'0 0.0
2015-Jul-27 05:34N 35°28' E 140°01'0 0.0
2015-Jul-27 04:10N 35°28' E 140°01'2 2.5
2015-Jul-27 03:33N 35°29' E 139°60'5 5.0
2015-Jul-27 02:33N 35°28' E 139°54'8 7.6
2015-Jul-27 01:33N 35°32' E 139°45'0 0.0
2015-Jul-27 00:33N 35°32' E 139°45'1 1.0
2015-Jul-26 23:34N 35°31' E 139°46'2 1.6
2015-Jul-26 22:32N 35°29' E 139°46'0 0.0
2015-Jul-26 21:29N 35°29' E 139°46'0 0.0
2015-Jul-26 20:32N 35°29' E 139°46'0 0.0
2015-Jul-26 19:32N 35°29' E 139°46'0 0.0
2015-Jul-26 18:32N 35°29' E 139°46'0 0.0
2015-Jul-26 17:32N 35°29' E 139°46'0 0.0
2015-Jul-26 16:32N 35°29' E 139°46'0 0.0
2015-Jul-26 15:32N 35°29' E 139°46'0 0.0
2015-Jul-26 14:32N 35°29' E 139°46'0 0.0
2015-Jul-26 13:32N 35°29' E 139°46'0 0.0
2015-Jul-26 12:32N 35°29' E 139°46'0 0.0
2015-Jul-26 11:32N 35°29' E 139°46'0 0.0
2015-Jul-26 10:32N 35°29' E 139°46'0 0.0
2015-Jul-26 09:32N 35°29' E 139°46'0 0.0
2015-Jul-26 08:29N 35°29' E 139°46'0 0.0
2015-Jul-26 07:32N 35°29' E 139°46'0 0.0
2015-Jul-26 06:32N 35°29' E 139°46'0 0.0
2015-Jul-26 05:32N 35°29' E 139°46'0 0.0
2015-Jul-26 04:32N 35°29' E 139°46'0 0.0
2015-Jul-26 03:32N 35°29' E 139°46'0 0.0
2015-Jul-26 02:32N 35°29' E 139°46'0 0.0
2015-Jul-26 01:32N 35°29' E 139°46'0 0.0
2015-Jul-26 00:32N 35°29' E 139°46'0 0.0
2015-Jul-25 23:32N 35°29' E 139°46'0 0.0
2015-Jul-25 22:32N 35°29' E 139°46'0 0.0
2015-Jul-25 21:32N 35°29' E 139°46'0 0.0
2015-Jul-25 20:32N 35°29' E 139°46'0 0.0
2015-Jul-25 19:32N 35°29' E 139°46'0 0.0
2015-Jul-25 18:32N 35°29' E 139°46'0 0.0
2015-Jul-25 17:32N 35°29' E 139°46'0 0.0
2015-Jul-25 16:32N 35°29' E 139°46'0 0.0
2015-Jul-25 15:32N 35°29' E 139°46'0 0.0
2015-Jul-25 14:32N 35°29' E 139°46'0 0.0
2015-Jul-25 13:32N 35°29' E 139°46'0 0.0
2015-Jul-25 12:32N 35°29' E 139°46'0 0.0
2015-Jul-25 11:32N 35°29' E 139°46'0 0.0
2015-Jul-25 10:32N 35°29' E 139°46'0 0.0
2015-Jul-25 09:32N 35°29' E 139°46'0 0.0
2015-Jul-25 08:32N 35°29' E 139°46'0 0.0
2015-Jul-25 07:29N 35°29' E 139°46'0 0.0
2015-Jul-25 06:32N 35°29' E 139°46'0 0.0
2015-Jul-25 05:32N 35°29' E 139°46'0 0.0
2015-Jul-25 04:32N 35°29' E 139°46'0 0.0
2015-Jul-25 03:32N 35°29' E 139°46'0 0.0
2015-Jul-25 02:32N 35°29' E 139°46'0 0.0
2015-Jul-25 01:32N 35°29' E 139°46'0 0.0
2015-Jul-25 00:32N 35°29' E 139°46'0 0.0
2015-Jul-24 23:32N 35°29' E 139°46'0 0.1
2015-Jul-24 22:32N 35°29' E 139°46'0 0.0
2015-Jul-24 21:32N 35°29' E 139°46'0 0.3
2015-Jul-24 20:34N 35°29' E 139°46'1010.0
2015-Jul-24 19:33N 35°19' E 139°44'9 9.3
2015-Jul-24 18:33N 35°10' E 139°47'1010.3
2015-Jul-24 17:33N 35°01' E 139°41'12 0.3
2015-Jul-22 22:13N 34°49' E 139°41'5 7.5
2015-Jul-22 21:30N 34°50' E 139°47'8 7.5
2015-Jul-22 20:28N 34°52' E 139°57'9 8.7
2015-Jul-22 19:24N 34°57' E 140°06'26 9.1
2015-Jul-22 16:31N 35°15' E 140°30'13 9.4
2015-Jul-22 15:08N 35°26' E 140°39'  
2015-Jul-18 17:23N 35°27' E 140°41'1410.3
2015-Jul-18 16:03N 35°17' E 140°31'2610.2
2015-Jul-18 13:28N 34°59' E 140°07'10 9.4
2015-Jul-18 12:27N 34°53' E 139°58'10 8.3
2015-Jul-18 11:13N 34°56' E 139°46'6 9.4
2015-Jul-18 10:33N 35°02' E 139°45'9 8.9
2015-Jul-18 09:34N 35°11' E 139°46'8 8.3
2015-Jul-18 08:33N 35°19' E 139°44'7 7.5
2015-Jul-18 07:33N 35°26' E 139°46'8 8.1
2015-Jul-18 06:33N 35°30' E 139°55'4 3.9
2015-Jul-18 05:29N 35°29' E 139°60'0 0.0
2015-Jul-18 04:29N 35°29' E 139°60'0 0.0
2015-Jul-18 03:32N 35°29' E 139°60'0 0.0
2015-Jul-18 02:29N 35°29' E 139°60'0 0.0
2015-Jul-18 01:29N 35°29' E 139°60'0 0.0
2015-Jul-18 00:22N 35°29' E 139°60'0 0.0
2015-Jul-17 23:31N 35°29' E 139°60'0 0.0
2015-Jul-17 22:32N 35°29' E 139°60'0 0.0
2015-Jul-17 21:32N 35°29' E 139°60'  
Track history (hours):
 
Tides and Currents Weather Stations Pressure Air Temp Water Temp Dewpoint Dewpoint Depression Visibility Wind Speed Wind Dir Waves Ship Positions

Ryoho Maru No.2

Last reported at 2015-Jul-27 21:21 UTC. Time now 2015-Aug-03 02:38 UTC.
Position N 35°35' E 140°50'.

Length 57 m; draft 4 m.

Type: Tanker. MMSI: 431001062.

Date/timePositionNaut miles runAvg speedWind from/ knotsBaromVisibWave heightAir tempDewpointWater temp
2015-Jul-27 21:21N 35°35' E 140°50'8 9.5
2015-Jul-27 20:33N 35°29' E 140°43'12 9.8
2015-Jul-27 19:22N 35°20' E 140°35'8 9.3
2015-Jul-27 18:33N 35°14' E 140°29'19 9.6
2015-Jul-27 16:33N 35°01' E 140°12'14 9.7
2015-Jul-27 15:07N 34°53' E 139°58'12 8.0
2015-Jul-27 13:33N 34°59' E 139°45'9 8.9
2015-Jul-27 12:33N 35°08' E 139°47'9 8.7
2015-Jul-27 11:33N 35°17' E 139°45'8 8.5
2015-Jul-27 10:34N 35°25' E 139°44'9 8.9
2015-Jul-27 09:33N 35°30' E 139°53'6 6.4
2015-Jul-27 08:34N 35°28' E 140°01'0 0.0
2015-Jul-27 07:34N 35°28' E 140°01'0 0.0
2015-Jul-27 06:31N 35°28' E 140°01'0 0.0
2015-Jul-27 05:34N 35°28' E 140°01'0 0.0
2015-Jul-27 04:10N 35°28' E 140°01'2 2.5
2015-Jul-27 03:33N 35°29' E 139°60'5 5.0
2015-Jul-27 02:33N 35°28' E 139°54'8 7.6
2015-Jul-27 01:33N 35°32' E 139°45'0 0.0
2015-Jul-27 00:33N 35°32' E 139°45'1 1.0
2015-Jul-26 23:34N 35°31' E 139°46'2 1.6
2015-Jul-26 22:32N 35°29' E 139°46'0 0.0
2015-Jul-26 21:29N 35°29' E 139°46'0 0.0
2015-Jul-26 20:32N 35°29' E 139°46'0 0.0
2015-Jul-26 19:32N 35°29' E 139°46'0 0.0
2015-Jul-26 18:32N 35°29' E 139°46'0 0.0
2015-Jul-26 17:32N 35°29' E 139°46'0 0.0
2015-Jul-26 16:32N 35°29' E 139°46'0 0.0
2015-Jul-26 15:32N 35°29' E 139°46'0 0.0
2015-Jul-26 14:32N 35°29' E 139°46'0 0.0
2015-Jul-26 13:32N 35°29' E 139°46'0 0.0
2015-Jul-26 12:32N 35°29' E 139°46'0 0.0
2015-Jul-26 11:32N 35°29' E 139°46'0 0.0
2015-Jul-26 10:32N 35°29' E 139°46'0 0.0
2015-Jul-26 09:32N 35°29' E 139°46'0 0.0
2015-Jul-26 08:29N 35°29' E 139°46'0 0.0
2015-Jul-26 07:32N 35°29' E 139°46'0 0.0
2015-Jul-26 06:32N 35°29' E 139°46'0 0.0
2015-Jul-26 05:32N 35°29' E 139°46'0 0.0
2015-Jul-26 04:32N 35°29' E 139°46'0 0.0
2015-Jul-26 03:32N 35°29' E 139°46'0 0.0
2015-Jul-26 02:32N 35°29' E 139°46'0 0.0
2015-Jul-26 01:32N 35°29' E 139°46'0 0.0
2015-Jul-26 00:32N 35°29' E 139°46'0 0.0
2015-Jul-25 23:32N 35°29' E 139°46'0 0.0
2015-Jul-25 22:32N 35°29' E 139°46'0 0.0
2015-Jul-25 21:32N 35°29' E 139°46'0 0.0
2015-Jul-25 20:32N 35°29' E 139°46'0 0.0
2015-Jul-25 19:32N 35°29' E 139°46'0 0.0
2015-Jul-25 18:32N 35°29' E 139°46'0 0.0
2015-Jul-25 17:32N 35°29' E 139°46'0 0.0
2015-Jul-25 16:32N 35°29' E 139°46'0 0.0
2015-Jul-25 15:32N 35°29' E 139°46'0 0.0
2015-Jul-25 14:32N 35°29' E 139°46'0 0.0
2015-Jul-25 13:32N 35°29' E 139°46'0 0.0
2015-Jul-25 12:32N 35°29' E 139°46'0 0.0
2015-Jul-25 11:32N 35°29' E 139°46'0 0.0
2015-Jul-25 10:32N 35°29' E 139°46'0 0.0
2015-Jul-25 09:32N 35°29' E 139°46'0 0.0
2015-Jul-25 08:32N 35°29' E 139°46'0 0.0
2015-Jul-25 07:29N 35°29' E 139°46'0 0.0
2015-Jul-25 06:32N 35°29' E 139°46'0 0.0
2015-Jul-25 05:32N 35°29' E 139°46'0 0.0
2015-Jul-25 04:32N 35°29' E 139°46'0 0.0
2015-Jul-25 03:32N 35°29' E 139°46'0 0.0
2015-Jul-25 02:32N 35°29' E 139°46'0 0.0
2015-Jul-25 01:32N 35°29' E 139°46'0 0.0
2015-Jul-25 00:32N 35°29' E 139°46'0 0.0
2015-Jul-24 23:32N 35°29' E 139°46'0 0.1
2015-Jul-24 22:32N 35°29' E 139°46'0 0.0
2015-Jul-24 21:32N 35°29' E 139°46'0 0.3
2015-Jul-24 20:34N 35°29' E 139°46'1010.0
2015-Jul-24 19:33N 35°19' E 139°44'9 9.3
2015-Jul-24 18:33N 35°10' E 139°47'1010.3
2015-Jul-24 17:33N 35°01' E 139°41'12 0.3
2015-Jul-22 22:13N 34°49' E 139°41'5 7.5
2015-Jul-22 21:30N 34°50' E 139°47'8 7.5
2015-Jul-22 20:28N 34°52' E 139°57'9 8.7
2015-Jul-22 19:24N 34°57' E 140°06'26 9.1
2015-Jul-22 16:31N 35°15' E 140°30'13 9.4
2015-Jul-22 15:08N 35°26' E 140°39'  
2015-Jul-18 17:23N 35°27' E 140°41'1410.3
2015-Jul-18 16:03N 35°17' E 140°31'2610.2
2015-Jul-18 13:28N 34°59' E 140°07'10 9.4
2015-Jul-18 12:27N 34°53' E 139°58'10 8.3
2015-Jul-18 11:13N 34°56' E 139°46'6 9.4
2015-Jul-18 10:33N 35°02' E 139°45'9 8.9
2015-Jul-18 09:34N 35°11' E 139°46'8 8.3
2015-Jul-18 08:33N 35°19' E 139°44'7 7.5
2015-Jul-18 07:33N 35°26' E 139°46'8 8.1
2015-Jul-18 06:33N 35°30' E 139°55'4 3.9
2015-Jul-18 05:29N 35°29' E 139°60'0 0.0
2015-Jul-18 04:29N 35°29' E 139°60'0 0.0
2015-Jul-18 03:32N 35°29' E 139°60'0 0.0
2015-Jul-18 02:29N 35°29' E 139°60'0 0.0
2015-Jul-18 01:29N 35°29' E 139°60'0 0.0
2015-Jul-18 00:22N 35°29' E 139°60'0 0.0
2015-Jul-17 23:31N 35°29' E 139°60'0 0.0
2015-Jul-17 22:32N 35°29' E 139°60'0 0.0
2015-Jul-17 21:32N 35°29' E 139°60'  

Dump ship's entire track history